Cobden, Minnesota
Current Conditions -  °F | °C
As of 4:54 AM on Friday 28 Nov 2014 (Local Time) from KULM Reporting Station
Clear Clear  
Wind Chill: -2°   Ceiling: Unl
Heat Index: 10°   Visibility: 10mi
Dew Point:   Wind: 8mph
Humidity: 85%   Direction: 130°SE
Pressure: 29.99"   Gusts: NA
Location:  44.2501°N, 94.7374°W
Report Text: KULM 281054Z AUTO 13007KT 10SM CLR M12/M14 A2999 RMK AO2
Loading
Personal Weather Stations






























Interactive Weather Map New forecast layout! Learn more

10-Day Weather Forecast

Advertisements
Track Severe Weather on mobile